createdAt,value
2018-08-28T00:02:33.359Z,100931.74
2018-08-28T00:07:36.937Z,100932.08
2018-08-28T00:12:40.487Z,100935.70
2018-08-28T00:17:44.034Z,100943.20
2018-08-28T00:22:47.543Z,100935.78
2018-08-28T00:27:51.099Z,100936.70
2018-08-28T00:32:54.646Z,100944.40
2018-08-28T00:37:58.177Z,100948.55
2018-08-28T00:43:01.649Z,100950.78
2018-08-28T00:48:05.337Z,100953.94
2018-08-28T00:53:08.867Z,100956.66
2018-08-28T00:58:12.581Z,100964.95
2018-08-28T01:03:16.049Z,100972.59
2018-08-28T01:08:19.641Z,100971.28
2018-08-28T01:13:23.171Z,100972.56
2018-08-28T01:18:26.713Z,100974.28
2018-08-28T01:23:33.272Z,100979.04
2018-08-28T01:28:36.864Z,100979.16
2018-08-28T01:33:40.348Z,100979.30
2018-08-28T01:38:43.915Z,100981.92
2018-08-28T01:43:47.421Z,100979.83
2018-08-28T01:48:51.357Z,100984.91
2018-08-28T01:53:54.864Z,100978.97
2018-08-28T01:58:58.463Z,100977.25
2018-08-28T02:04:02.122Z,100981.05
2018-08-28T02:09:07.445Z,100989.43
2018-08-28T02:14:10.885Z,100981.97
2018-08-28T02:19:14.401Z,100984.27
2018-08-28T02:24:17.911Z,100985.48
2018-08-28T02:29:21.433Z,100992.58
2018-08-28T02:34:24.890Z,100987.69
2018-08-28T02:39:28.438Z,100988.95
2018-08-28T02:44:32.270Z,100985.45
2018-08-28T02:49:35.791Z,100985.73
2018-08-28T02:54:39.520Z,100987.17
2018-08-28T02:59:43.236Z,100979.55
2018-08-28T03:04:46.931Z,100979.03
2018-08-28T03:09:50.458Z,100987.91
2018-08-28T03:14:53.978Z,100991.79
2018-08-28T03:19:57.522Z,101002.56
2018-08-28T03:25:01.178Z,101003.97
2018-08-28T03:30:04.757Z,101007.24
2018-08-28T03:35:08.268Z,101004.95
2018-08-28T03:40:11.779Z,101010.17
2018-08-28T03:45:15.331Z,101013.13
2018-08-28T03:50:18.867Z,101015.20
2018-08-28T03:55:22.379Z,101019.73
2018-08-28T04:05:36.525Z,101019.78
2018-08-28T04:10:40.219Z,101022.47
2018-08-28T04:15:43.777Z,101025.55
2018-08-28T04:20:47.314Z,101030.02
2018-08-28T04:25:50.998Z,101040.53
2018-08-28T04:31:03.738Z,101038.25
2018-08-28T04:36:07.208Z,101040.27
2018-08-28T04:41:11.126Z,101040.43
2018-08-28T04:46:14.667Z,101049.02
2018-08-28T04:51:18.424Z,101043.81
2018-08-28T04:56:21.948Z,101050.67
2018-08-28T05:01:25.484Z,101054.57
2018-08-28T05:06:29.189Z,101060.50
2018-08-28T05:11:32.741Z,101059.99
2018-08-28T05:16:36.256Z,101066.34
2018-08-28T05:21:39.878Z,101074.77
2018-08-28T05:26:43.670Z,101082.13
2018-08-28T05:31:47.192Z,101092.16
2018-08-28T05:36:50.837Z,101093.15
2018-08-28T05:41:54.555Z,101094.84
2018-08-28T05:46:58.049Z,101100.33
2018-08-28T05:52:01.622Z,101104.90
2018-08-28T05:57:05.139Z,101109.98
2018-08-28T06:02:09.045Z,101116.16
2018-08-28T06:07:12.605Z,101109.99
2018-08-28T06:12:16.290Z,101121.18
2018-08-28T06:17:19.916Z,101122.08
2018-08-28T06:22:23.557Z,101120.63
2018-08-28T06:27:27.272Z,101130.19
2018-08-28T06:32:30.837Z,101140.27
2018-08-28T06:37:34.312Z,101138.93
2018-08-28T06:42:37.845Z,101138.66
2018-08-28T06:47:43.209Z,101139.63
2018-08-28T06:52:46.754Z,101147.39
2018-08-28T06:57:50.216Z,101146.84
2018-08-28T07:02:53.740Z,101149.84
2018-08-28T07:07:57.283Z,101153.48
2018-08-28T07:13:00.809Z,101154.58
2018-08-28T07:18:04.580Z,101167.03
2018-08-28T07:23:08.136Z,101164.26
2018-08-28T07:28:11.606Z,101178.79
2018-08-28T07:33:15.316Z,101177.36
2018-08-28T07:38:18.991Z,101177.77
2018-08-28T07:43:22.547Z,101181.59
2018-08-28T07:48:26.102Z,101184.02
2018-08-28T07:53:29.625Z,101187.66
2018-08-28T07:58:33.068Z,101196.77
2018-08-28T08:03:36.607Z,101192.06
2018-08-28T08:08:40.119Z,101193.19
2018-08-28T08:13:43.662Z,101195.00
2018-08-28T08:18:47.120Z,101186.23
2018-08-28T08:23:50.941Z,101198.70
2018-08-28T08:28:54.461Z,101199.64
2018-08-28T08:33:58.062Z,101202.31
2018-08-28T08:39:01.634Z,101205.69
2018-08-28T08:44:05.477Z,101197.78
2018-08-28T08:49:09.250Z,101191.86
2018-08-28T08:54:12.856Z,101190.68
2018-08-28T08:59:16.481Z,101188.75
2018-08-28T09:04:20.130Z,101186.23
2018-08-28T09:09:23.659Z,101184.04
2018-08-28T09:14:27.209Z,101175.52
2018-08-28T09:19:30.772Z,101173.13
2018-08-28T09:24:34.404Z,101174.86
2018-08-28T09:29:37.978Z,101172.06
2018-08-28T09:34:41.569Z,101163.85
2018-08-28T09:39:45.049Z,101168.95
2018-08-28T09:44:48.804Z,101169.74
2018-08-28T09:49:52.390Z,101166.16
2018-08-28T09:54:55.892Z,101172.51
2018-08-28T09:59:59.344Z,101178.06
2018-08-28T10:05:02.897Z,101174.78
2018-08-28T10:10:06.394Z,101174.89
2018-08-28T10:15:10.189Z,101172.84
2018-08-28T10:20:13.733Z,101173.98
2018-08-28T10:25:17.238Z,101174.66
2018-08-28T10:30:28.231Z,101183.52
2018-08-28T10:35:31.758Z,101176.44
2018-08-28T10:40:35.232Z,101169.45
2018-08-28T10:45:42.039Z,101173.41
2018-08-28T10:50:45.669Z,101175.27
2018-08-28T10:55:49.577Z,101175.59
2018-08-28T11:00:53.109Z,101180.47
2018-08-28T11:05:56.746Z,101179.89
2018-08-28T11:11:00.409Z,101185.98
2018-08-28T11:16:03.979Z,101191.85
2018-08-28T11:21:07.622Z,101188.86
2018-08-28T11:26:11.195Z,101189.72
2018-08-28T11:31:14.857Z,101190.58
2018-08-28T11:36:18.435Z,101203.94
2018-08-28T11:41:22.140Z,101202.45
2018-08-28T11:46:25.678Z,101198.52
2018-08-28T11:51:29.331Z,101192.58
2018-08-28T11:56:32.879Z,101190.30
2018-08-28T12:01:36.426Z,101186.78
2018-08-28T12:06:40.233Z,101180.07
2018-08-28T12:11:43.823Z,101169.73
2018-08-28T12:16:47.391Z,101162.20
2018-08-28T12:21:50.881Z,101166.47
2018-08-28T12:26:54.436Z,101160.70
2018-08-28T12:31:57.895Z,101154.32
2018-08-28T12:37:01.457Z,101144.04
2018-08-28T12:42:05.079Z,101142.04
2018-08-28T12:47:08.669Z,101124.55
2018-08-28T12:52:12.226Z,101123.01
2018-08-28T12:57:15.862Z,101119.94
2018-08-28T13:02:19.447Z,101124.54
2018-08-28T13:07:23.275Z,101113.56
2018-08-28T13:12:26.814Z,101113.56
2018-08-28T13:17:30.508Z,101109.06
2018-08-28T13:22:34.027Z,101104.31
2018-08-28T13:27:37.568Z,101096.47
2018-08-28T13:32:41.022Z,101096.17
2018-08-28T13:37:44.559Z,101096.67
2018-08-28T13:42:48.047Z,101092.05
2018-08-28T13:47:51.578Z,101095.19
2018-08-28T13:52:56.342Z,101093.80
2018-08-28T13:57:59.908Z,101099.72
2018-08-28T14:03:03.637Z,101088.94
2018-08-28T14:08:07.244Z,101092.09
2018-08-28T14:13:10.753Z,101089.73
2018-08-28T14:18:14.602Z,101086.53
2018-08-28T14:23:18.171Z,101087.70
2018-08-28T14:28:21.687Z,101064.61
2018-08-28T14:33:25.152Z,101073.56
2018-08-28T14:38:28.728Z,101065.33
2018-08-28T14:43:32.317Z,101056.91
2018-08-28T14:48:35.877Z,101048.41
2018-08-28T14:53:39.419Z,101044.28
2018-08-28T14:58:42.961Z,101042.86
2018-08-28T15:03:46.602Z,101034.75
2018-08-28T15:08:50.125Z,101046.72
2018-08-28T15:13:53.719Z,101026.69
2018-08-28T15:18:57.436Z,101034.13
2018-08-28T15:24:00.925Z,101023.91
2018-08-28T15:29:04.507Z,101030.14
2018-08-28T15:34:07.988Z,101025.55
2018-08-28T15:39:11.557Z,101028.97
2018-08-28T15:44:15.145Z,101024.57
2018-08-28T15:49:18.748Z,101023.66
2018-08-28T15:54:22.312Z,101013.48
2018-08-28T15:59:25.909Z,101005.59
2018-08-28T16:04:29.447Z,101006.46
2018-08-28T16:09:32.945Z,101005.31
2018-08-28T16:14:36.718Z,101000.47
2018-08-28T16:19:40.278Z,101000.38
2018-08-28T16:24:43.889Z,100995.45
2018-08-28T16:29:49.856Z,100987.99
2018-08-28T16:34:53.517Z,100986.64
2018-08-28T16:39:57.053Z,100989.34
2018-08-28T16:45:01.118Z,100986.23
2018-08-28T16:50:04.826Z,100983.57
2018-08-28T16:55:08.379Z,100979.92
2018-08-28T17:00:12.213Z,100971.38
2018-08-28T17:05:15.810Z,100970.61
2018-08-28T17:10:19.382Z,100962.03
2018-08-28T17:15:22.985Z,100958.05
2018-08-28T17:20:26.541Z,100953.92
2018-08-28T17:25:30.029Z,100957.14
2018-08-28T17:30:33.603Z,100953.91
2018-08-28T17:35:37.074Z,100953.13
2018-08-28T17:40:40.631Z,100950.32
2018-08-28T17:45:44.139Z,100944.42
2018-08-28T17:50:47.776Z,100941.70
2018-08-28T17:55:51.250Z,100939.67
2018-08-28T18:00:54.787Z,100943.16
2018-08-28T18:05:58.341Z,100937.67
2018-08-28T18:11:02.425Z,100931.62
2018-08-28T18:16:05.949Z,100929.30
2018-08-28T18:21:09.452Z,100935.42
2018-08-28T18:26:12.953Z,100929.75
2018-08-28T18:31:16.561Z,100940.88
2018-08-28T18:36:20.510Z,100943.39
2018-08-28T18:41:24.102Z,100951.81
2018-08-28T18:46:28.212Z,100945.33
2018-08-28T18:51:31.751Z,100945.16
2018-08-28T18:56:35.263Z,100942.95
2018-08-28T19:01:38.798Z,100945.59
2018-08-28T19:06:42.357Z,100939.27
2018-08-28T19:11:45.916Z,100941.83
2018-08-28T19:16:50.414Z,100933.75
2018-08-28T19:21:54.014Z,100933.59
2018-08-28T19:26:57.957Z,100932.65
2018-08-28T19:32:01.490Z,100928.27
2018-08-28T19:37:13.067Z,100929.09
2018-08-28T19:42:16.616Z,100922.89
2018-08-28T19:47:20.073Z,100920.88
2018-08-28T19:52:24.495Z,100916.03
2018-08-28T19:57:28.016Z,100908.37
2018-08-28T20:02:31.575Z,100897.78
2018-08-28T20:07:35.306Z,100905.63
2018-08-28T20:12:38.995Z,100906.77
2018-08-28T20:17:42.630Z,100900.91
2018-08-28T20:22:46.176Z,100894.30
2018-08-28T20:27:49.732Z,100898.43
2018-08-28T20:32:53.286Z,100891.88
2018-08-28T20:37:56.754Z,100896.03
2018-08-28T20:43:00.314Z,100889.53
2018-08-28T20:48:03.865Z,100886.59
2018-08-28T20:53:07.702Z,100890.20
2018-08-28T20:58:11.181Z,100891.52
2018-08-28T21:03:14.733Z,100893.56
2018-08-28T21:08:18.227Z,100889.91
2018-08-28T21:13:21.788Z,100887.64
2018-08-28T21:18:25.373Z,100887.67
2018-08-28T21:23:28.873Z,100881.09
2018-08-28T21:28:32.357Z,100881.29
2018-08-28T21:33:36.056Z,100880.69
2018-08-28T21:38:39.628Z,100875.16
2018-08-28T21:43:43.389Z,100871.61
2018-08-28T21:48:47.114Z,100876.41
2018-08-28T21:53:50.869Z,100877.03
2018-08-28T21:58:54.639Z,100873.85
2018-08-28T22:03:58.255Z,100866.22
2018-08-28T22:09:01.701Z,100862.81
2018-08-28T22:14:05.298Z,100864.81
2018-08-28T22:19:08.891Z,100864.47
2018-08-28T22:24:12.407Z,100865.64
2018-08-28T22:29:16.362Z,100859.95
2018-08-28T22:34:19.935Z,100860.80
2018-08-28T22:39:23.424Z,100858.92
2018-08-28T22:44:34.200Z,100855.73
2018-08-28T22:49:37.744Z,100846.83
2018-08-28T22:54:41.213Z,100841.41
2018-08-28T22:59:44.745Z,100826.77
2018-08-28T23:04:48.285Z,100821.19
2018-08-28T23:09:51.853Z,100811.59
2018-08-28T23:14:55.453Z,100805.78
2018-08-28T23:19:59.969Z,100805.21
2018-08-28T23:25:03.526Z,100805.33
2018-08-28T23:30:09.808Z,100806.17
2018-08-28T23:35:13.455Z,100806.44
2018-08-28T23:40:17.036Z,100787.93
2018-08-28T23:45:20.823Z,100791.53
2018-08-28T23:50:24.365Z,100791.48
2018-08-28T23:55:27.857Z,100790.20
